createdAt,value
2023-01-19T00:00:31.165Z,85.96
2023-01-19T00:02:57.822Z,88.61
2023-01-19T00:05:24.479Z,80.11
2023-01-19T00:07:51.082Z,76.03
2023-01-19T00:10:17.776Z,78.01
2023-01-19T00:12:44.343Z,81.79
2023-01-19T00:15:11.630Z,81.76
2023-01-19T00:17:40.897Z,82.97
2023-01-19T00:20:10.973Z,83.57
2023-01-19T00:22:37.596Z,83.96
2023-01-19T00:25:04.388Z,83.82
2023-01-19T00:27:34.825Z,84.20
2023-01-19T00:30:02.044Z,84.48
2023-01-19T00:32:28.837Z,85.09
2023-01-19T00:34:55.482Z,86.55
2023-01-19T00:37:22.106Z,85.90
2023-01-19T00:39:48.768Z,86.62
2023-01-19T00:42:33.833Z,85.72
2023-01-19T00:45:00.430Z,86.37
2023-01-19T00:47:27.200Z,86.26
2023-01-19T00:49:53.757Z,86.42
2023-01-19T00:52:20.523Z,86.46
2023-01-19T00:54:47.188Z,86.72
2023-01-19T00:57:15.389Z,86.41
2023-01-19T00:59:42.029Z,86.27
2023-01-19T01:02:08.771Z,86.18
2023-01-19T01:04:35.479Z,86.07
2023-01-19T01:07:02.108Z,85.27
2023-01-19T01:09:28.728Z,85.74
2023-01-19T01:11:55.336Z,85.46
2023-01-19T01:14:21.906Z,85.38
2023-01-19T01:16:48.697Z,85.10
2023-01-19T01:19:16.170Z,89.50
2023-01-19T01:21:42.875Z,88.98
2023-01-19T01:24:09.536Z,87.19
2023-01-19T01:26:36.144Z,86.58
2023-01-19T01:29:02.897Z,86.44
2023-01-19T01:31:29.836Z,85.82
2023-01-19T01:33:56.452Z,83.48
2023-01-19T01:36:23.214Z,83.37
2023-01-19T01:38:50.923Z,82.92
2023-01-19T01:41:17.530Z,83.82
2023-01-19T01:43:48.062Z,84.56
2023-01-19T01:46:16.180Z,83.44
2023-01-19T01:48:52.229Z,84.80
2023-01-19T01:51:26.233Z,84.79
2023-01-19T01:54:20.649Z,84.30
2023-01-19T01:56:49.233Z,84.71
2023-01-19T01:59:26.383Z,84.74
2023-01-19T02:02:13.462Z,84.88
2023-01-19T02:04:44.773Z,84.97
2023-01-19T02:07:34.021Z,85.36
2023-01-19T02:10:19.582Z,84.21
2023-01-19T02:13:04.726Z,86.20
2023-01-19T02:15:31.287Z,84.86
2023-01-19T02:17:58.485Z,83.40
2023-01-19T02:20:28.176Z,83.73
2023-01-19T02:22:55.837Z,84.57
2023-01-19T02:25:22.752Z,84.26
2023-01-19T02:27:50.168Z,87.81
2023-01-19T02:30:17.852Z,88.73
2023-01-19T02:32:44.399Z,87.19
2023-01-19T02:35:11.801Z,87.06
2023-01-19T02:37:40.168Z,86.49
2023-01-19T02:40:11.534Z,86.00
2023-01-19T02:42:43.711Z,83.69
2023-01-19T02:45:12.699Z,83.50
2023-01-19T02:47:42.013Z,83.53
2023-01-19T02:50:46.428Z,83.68
2023-01-19T02:53:30.617Z,84.35
2023-01-19T02:56:01.598Z,84.54
2023-01-19T02:58:59.258Z,84.30
2023-01-19T03:01:47.449Z,84.41
2023-01-19T03:04:53.448Z,84.15
2023-01-19T03:07:41.465Z,84.65
2023-01-19T03:10:13.276Z,83.72
2023-01-19T03:12:54.596Z,83.85
2023-01-19T03:15:35.382Z,83.61
2023-01-19T03:18:02.832Z,83.62
2023-01-19T03:20:29.540Z,83.82
2023-01-19T03:23:01.852Z,85.28
2023-01-19T03:25:31.898Z,84.88
2023-01-19T03:27:59.523Z,85.40
2023-01-19T03:30:29.237Z,85.18
2023-01-19T03:33:22.550Z,84.56
2023-01-19T03:35:51.152Z,84.79
2023-01-19T03:38:22.291Z,84.22
2023-01-19T03:40:49.143Z,84.16
2023-01-19T03:43:16.801Z,84.89
2023-01-19T03:45:44.219Z,84.52
2023-01-19T03:48:11.337Z,84.76
2023-01-19T03:50:38.100Z,85.21
2023-01-19T03:53:13.489Z,85.58
2023-01-19T03:55:45.065Z,85.72
2023-01-19T03:58:12.081Z,86.34
2023-01-19T04:00:41.744Z,87.18
2023-01-19T04:03:13.235Z,87.84
2023-01-19T04:05:40.136Z,90.00
2023-01-19T04:08:06.831Z,89.61
2023-01-19T04:10:33.492Z,90.93
2023-01-19T04:13:04.162Z,92.50
2023-01-19T04:15:31.392Z,93.19
2023-01-19T04:17:59.164Z,92.40
2023-01-19T04:20:28.028Z,93.47
2023-01-19T04:22:56.166Z,94.20
2023-01-19T04:25:22.817Z,94.59
2023-01-19T04:27:52.919Z,95.90
2023-01-19T04:30:19.902Z,95.54
2023-01-19T04:32:46.791Z,95.29
2023-01-19T04:35:13.475Z,94.93
2023-01-19T04:37:40.265Z,94.94
2023-01-19T04:40:07.674Z,95.79
2023-01-19T04:42:34.286Z,96.20
2023-01-19T04:45:00.903Z,96.90
2023-01-19T04:47:27.548Z,98.03
2023-01-19T04:49:54.247Z,97.42
2023-01-19T04:52:20.838Z,97.29
2023-01-19T04:54:47.704Z,96.61
2023-01-19T04:57:14.278Z,97.61
2023-01-19T04:59:41.249Z,98.53
2023-01-19T05:02:07.956Z,99.07
2023-01-19T05:04:34.556Z,99.59
2023-01-19T05:07:01.229Z,99.58
2023-01-19T05:09:27.961Z,99.89
2023-01-19T05:11:54.579Z,99.19
2023-01-19T05:14:21.297Z,99.15
2023-01-19T05:16:47.863Z,100.00
2023-01-19T05:19:15.277Z,100.00
2023-01-19T05:21:41.960Z,100.00
2023-01-19T05:24:08.835Z,100.00
2023-01-19T05:26:35.432Z,100.00
2023-01-19T05:29:02.060Z,100.00
2023-01-19T05:31:28.817Z,100.00
2023-01-19T05:33:55.464Z,100.00
2023-01-19T05:36:22.134Z,100.00
2023-01-19T05:38:49.163Z,100.00
2023-01-19T05:41:15.725Z,100.00
2023-01-19T05:43:42.368Z,100.00
2023-01-19T05:46:09.180Z,100.00
2023-01-19T05:48:35.876Z,100.00
2023-01-19T05:51:02.517Z,100.00
2023-01-19T05:53:29.187Z,100.00
2023-01-19T05:56:00.614Z,100.00
2023-01-19T05:58:27.184Z,100.00
2023-01-19T06:00:53.834Z,100.00
2023-01-19T06:03:20.671Z,100.00
2023-01-19T06:05:47.356Z,100.00
2023-01-19T06:08:14.313Z,97.76
2023-01-19T06:10:41.266Z,92.97
2023-01-19T06:13:09.688Z,91.70
2023-01-19T06:15:36.291Z,93.94
2023-01-19T06:18:02.918Z,92.22
2023-01-19T06:20:29.490Z,92.16
2023-01-19T06:22:59.648Z,94.03
2023-01-19T06:25:26.505Z,93.72
2023-01-19T06:27:53.277Z,92.94
2023-01-19T06:30:20.117Z,92.01
2023-01-19T06:32:47.426Z,94.04
2023-01-19T06:35:14.146Z,93.37
2023-01-19T06:37:40.727Z,93.16
2023-01-19T06:40:07.995Z,93.44
2023-01-19T06:42:34.596Z,93.19
2023-01-19T06:45:01.234Z,93.43
2023-01-19T06:47:27.851Z,92.13
2023-01-19T06:49:54.468Z,91.56
2023-01-19T06:52:21.125Z,92.05
2023-01-19T06:54:47.943Z,91.65
2023-01-19T06:57:16.710Z,91.90
2023-01-19T06:59:44.032Z,90.26
2023-01-19T07:02:26.930Z,90.58
2023-01-19T07:04:54.983Z,89.56
2023-01-19T07:07:21.592Z,90.64
2023-01-19T07:09:48.427Z,89.28
2023-01-19T07:12:15.460Z,88.62
2023-01-19T07:14:42.398Z,89.01
2023-01-19T07:17:09.176Z,90.20
2023-01-19T07:19:36.115Z,89.17
2023-01-19T07:22:03.207Z,89.01
2023-01-19T07:24:34.897Z,88.83
2023-01-19T07:27:01.463Z,89.60
2023-01-19T07:29:28.068Z,90.34
2023-01-19T07:31:54.767Z,90.48
2023-01-19T07:34:21.918Z,90.76
2023-01-19T07:36:48.860Z,91.65
2023-01-19T07:39:15.785Z,90.42
2023-01-19T07:41:42.463Z,92.81
2023-01-19T07:44:09.181Z,93.20
2023-01-19T07:46:35.979Z,90.19
2023-01-19T07:49:02.661Z,89.29
2023-01-19T07:51:29.298Z,90.77
2023-01-19T07:53:55.998Z,91.55
2023-01-19T07:56:24.196Z,92.56
2023-01-19T07:58:52.363Z,91.24
2023-01-19T08:01:19.239Z,91.17
2023-01-19T08:03:48.045Z,91.33
2023-01-19T08:06:24.452Z,91.38
2023-01-19T08:08:51.207Z,90.69
2023-01-19T08:11:17.815Z,91.88
2023-01-19T08:13:44.718Z,92.21
2023-01-19T08:16:12.802Z,91.81
2023-01-19T08:18:42.845Z,91.86
2023-01-19T08:21:09.483Z,92.51
2023-01-19T08:23:36.118Z,91.25
2023-01-19T08:26:02.980Z,91.39
2023-01-19T08:28:29.961Z,92.44
2023-01-19T08:30:56.742Z,92.41
2023-01-19T08:33:25.192Z,91.26
2023-01-19T08:35:53.200Z,92.59
2023-01-19T08:38:20.057Z,90.71
2023-01-19T08:40:46.642Z,91.52
2023-01-19T08:43:17.243Z,92.46
2023-01-19T08:45:48.475Z,92.20
2023-01-19T08:48:16.594Z,92.10
2023-01-19T08:50:46.585Z,92.58
2023-01-19T08:53:13.565Z,92.21
2023-01-19T08:55:40.655Z,93.43
2023-01-19T08:58:08.663Z,91.03
2023-01-19T09:00:37.981Z,91.28
2023-01-19T09:03:06.629Z,90.54
2023-01-19T09:05:35.585Z,91.73
2023-01-19T09:08:03.823Z,90.88
2023-01-19T09:10:36.034Z,90.03
2023-01-19T09:13:08.360Z,90.23
2023-01-19T09:15:38.067Z,92.01
2023-01-19T09:18:07.091Z,92.47
2023-01-19T09:20:36.044Z,89.50
2023-01-19T09:23:02.621Z,91.42
2023-01-19T09:25:29.367Z,92.42
2023-01-19T09:27:56.237Z,91.36
2023-01-19T09:30:22.807Z,91.75
2023-01-19T09:32:49.409Z,91.53
2023-01-19T09:35:16.418Z,91.17
2023-01-19T09:37:47.436Z,90.42
2023-01-19T09:40:15.541Z,89.45
2023-01-19T09:42:44.099Z,90.21
2023-01-19T09:45:36.518Z,91.46
2023-01-19T09:48:20.313Z,92.08
2023-01-19T09:50:48.420Z,91.51
2023-01-19T09:53:27.276Z,89.49
2023-01-19T09:55:54.450Z,90.74
2023-01-19T09:58:21.161Z,91.19
2023-01-19T10:01:05.722Z,90.23
2023-01-19T10:03:32.932Z,90.64
2023-01-19T10:06:03.669Z,90.57
2023-01-19T10:08:41.637Z,89.62
2023-01-19T10:11:41.875Z,90.08
2023-01-19T10:14:26.418Z,89.66
2023-01-19T10:17:05.509Z,89.81
2023-01-19T10:19:38.297Z,88.60
2023-01-19T10:22:25.738Z,89.01
2023-01-19T10:24:59.214Z,89.07
2023-01-19T10:27:31.365Z,88.90
2023-01-19T10:29:58.621Z,88.21
2023-01-19T10:32:31.406Z,88.17
2023-01-19T10:34:59.447Z,87.84
2023-01-19T10:37:31.610Z,87.54
2023-01-19T10:40:02.134Z,88.14
2023-01-19T10:42:30.258Z,88.03
2023-01-19T10:44:57.203Z,87.04
2023-01-19T10:47:31.496Z,88.86
2023-01-19T10:49:58.258Z,87.20
2023-01-19T10:52:36.584Z,87.43
2023-01-19T10:55:04.886Z,86.59
2023-01-19T10:57:36.483Z,85.29
2023-01-19T11:00:05.166Z,87.21
2023-01-19T11:02:32.581Z,86.88
2023-01-19T11:05:01.652Z,88.90
2023-01-19T11:07:28.398Z,87.40
2023-01-19T11:10:21.276Z,86.62
2023-01-19T11:12:55.052Z,86.40
2023-01-19T11:15:31.992Z,89.66
2023-01-19T11:17:59.275Z,88.49
2023-01-19T11:20:32.342Z,87.00
2023-01-19T11:23:19.629Z,85.63
2023-01-19T11:25:49.070Z,87.51
2023-01-19T11:28:19.059Z,87.93
2023-01-19T11:31:01.291Z,88.59
2023-01-19T11:33:42.234Z,89.86
2023-01-19T11:36:23.236Z,88.22
2023-01-19T11:39:14.026Z,87.82
2023-01-19T11:41:41.255Z,88.35
2023-01-19T11:44:22.729Z,86.81
2023-01-19T11:47:02.868Z,87.43
2023-01-19T11:49:40.723Z,88.04
2023-01-19T11:52:46.554Z,87.63
2023-01-19T11:55:20.150Z,87.94
2023-01-19T11:57:48.943Z,88.39
2023-01-19T12:00:46.787Z,88.38
2023-01-19T12:03:19.813Z,87.74
2023-01-19T12:05:49.479Z,87.18
2023-01-19T12:08:22.840Z,86.90
2023-01-19T12:10:51.216Z,84.68
2023-01-19T12:13:23.478Z,86.28
2023-01-19T12:16:11.379Z,85.07
2023-01-19T12:18:48.513Z,86.75
2023-01-19T12:21:15.098Z,86.59
2023-01-19T12:24:01.318Z,86.74
2023-01-19T12:26:57.446Z,86.71
2023-01-19T12:29:29.565Z,86.68
2023-01-19T12:32:16.681Z,85.24
2023-01-19T12:34:48.496Z,84.75
2023-01-19T12:37:38.089Z,83.94
2023-01-19T12:40:23.498Z,84.31
2023-01-19T12:42:59.854Z,84.47
2023-01-19T12:45:35.239Z,85.10
2023-01-19T12:48:02.902Z,84.74
2023-01-19T12:50:37.158Z,84.04
2023-01-19T12:53:07.219Z,83.62
2023-01-19T12:55:37.034Z,82.47
2023-01-19T12:58:18.719Z,82.99
2023-01-19T13:00:47.366Z,82.51
2023-01-19T13:03:17.368Z,82.89
2023-01-19T13:05:43.963Z,84.74
2023-01-19T13:08:11.395Z,83.61
2023-01-19T13:10:59.267Z,83.37
2023-01-19T13:13:40.027Z,82.80
2023-01-19T13:16:19.245Z,82.84
2023-01-19T13:19:06.177Z,83.58
2023-01-19T13:21:44.718Z,83.77
2023-01-19T13:24:16.943Z,83.27
2023-01-19T13:26:55.228Z,84.42
2023-01-19T13:29:31.494Z,82.25
2023-01-19T13:32:02.836Z,82.39
2023-01-19T13:34:49.643Z,83.35
2023-01-19T13:37:19.822Z,82.49
2023-01-19T13:39:51.201Z,83.66
2023-01-19T13:42:25.539Z,83.05
2023-01-19T13:44:53.784Z,81.49
2023-01-19T13:47:23.422Z,81.89
2023-01-19T13:50:01.675Z,82.52
2023-01-19T13:52:29.523Z,83.91
2023-01-19T13:55:01.315Z,84.02
2023-01-19T13:57:39.962Z,83.26
2023-01-19T14:00:09.616Z,83.45
2023-01-19T14:02:39.717Z,83.67
2023-01-19T14:05:25.235Z,83.22
2023-01-19T14:08:13.179Z,83.87
2023-01-19T14:11:02.216Z,83.64
2023-01-19T14:13:32.987Z,83.12
2023-01-19T14:16:05.546Z,82.91
2023-01-19T14:18:34.590Z,81.80
2023-01-19T14:21:07.785Z,83.36
2023-01-19T14:24:12.372Z,82.04
2023-01-19T14:26:53.768Z,83.65
2023-01-19T14:29:29.278Z,81.58
2023-01-19T14:32:01.698Z,81.66
2023-01-19T14:34:31.245Z,80.76
2023-01-19T14:36:58.372Z,80.00
2023-01-19T14:39:27.514Z,81.31
2023-01-19T14:42:00.046Z,81.65
2023-01-19T14:44:35.645Z,80.88
2023-01-19T14:47:02.916Z,79.82
2023-01-19T14:49:38.395Z,81.12
2023-01-19T14:52:06.596Z,80.77
2023-01-19T14:54:40.430Z,80.97
2023-01-19T14:57:12.891Z,81.01
2023-01-19T14:59:40.645Z,80.43
2023-01-19T15:02:09.794Z,82.11
2023-01-19T15:04:37.100Z,81.91
2023-01-19T15:07:04.800Z,81.07
2023-01-19T15:09:33.203Z,82.01
2023-01-19T15:12:04.453Z,81.30
2023-01-19T15:14:31.891Z,82.28
2023-01-19T15:16:59.668Z,80.38
2023-01-19T15:19:26.973Z,80.54
2023-01-19T15:21:54.009Z,81.25
2023-01-19T15:24:24.688Z,81.80
2023-01-19T15:26:55.303Z,81.82
2023-01-19T15:29:26.638Z,80.70
2023-01-19T15:31:56.816Z,81.01
2023-01-19T15:34:27.719Z,81.07
2023-01-19T15:36:54.751Z,80.57
2023-01-19T15:39:21.525Z,81.98
2023-01-19T15:41:48.183Z,81.88
2023-01-19T15:44:14.846Z,82.14
2023-01-19T15:46:43.061Z,81.56
2023-01-19T15:49:13.576Z,83.16
2023-01-19T15:51:40.411Z,81.30
2023-01-19T15:54:15.165Z,81.79
2023-01-19T15:56:52.696Z,81.97
2023-01-19T15:59:23.721Z,80.18
2023-01-19T16:01:55.400Z,80.64
2023-01-19T16:04:23.931Z,81.44
2023-01-19T16:06:51.713Z,81.36
2023-01-19T16:09:20.241Z,82.83
2023-01-19T16:11:49.321Z,83.07
2023-01-19T16:14:26.234Z,82.89
2023-01-19T16:16:54.671Z,82.35
2023-01-19T16:19:21.621Z,82.25
2023-01-19T16:21:48.608Z,82.53
2023-01-19T16:24:15.785Z,83.46
2023-01-19T16:26:42.839Z,83.49
2023-01-19T16:29:10.952Z,83.34
2023-01-19T16:31:39.666Z,81.85
2023-01-19T16:34:08.185Z,81.79
2023-01-19T16:36:38.213Z,82.76
2023-01-19T16:39:07.796Z,81.71
2023-01-19T16:41:35.741Z,82.81
2023-01-19T16:44:03.305Z,82.26
2023-01-19T16:46:34.534Z,81.64
2023-01-19T16:49:07.164Z,82.10
2023-01-19T16:51:34.027Z,81.55
2023-01-19T16:54:01.025Z,84.52
2023-01-19T16:56:28.166Z,82.93
2023-01-19T16:59:02.016Z,81.32
2023-01-19T17:01:32.926Z,79.95
2023-01-19T17:04:00.658Z,80.48
2023-01-19T17:06:31.217Z,80.82
2023-01-19T17:08:59.557Z,81.43
2023-01-19T17:11:29.766Z,81.43
2023-01-19T17:14:06.382Z,80.53
2023-01-19T17:16:34.985Z,80.96
2023-01-19T17:19:05.573Z,79.80
2023-01-19T17:21:33.770Z,81.26
2023-01-19T17:24:00.719Z,79.87
2023-01-19T17:26:31.032Z,79.07
2023-01-19T17:29:02.214Z,79.67
2023-01-19T17:31:30.380Z,79.95
2023-01-19T17:33:57.625Z,79.53
2023-01-19T17:36:25.423Z,79.84
2023-01-19T17:38:53.273Z,80.61
2023-01-19T17:41:21.117Z,80.74
2023-01-19T17:43:50.441Z,81.03
2023-01-19T17:46:18.326Z,79.98
2023-01-19T17:48:44.973Z,80.39
2023-01-19T17:51:12.740Z,80.96
2023-01-19T17:53:40.654Z,81.29
2023-01-19T17:56:13.457Z,81.96
2023-01-19T17:58:40.839Z,80.55
2023-01-19T18:01:33.436Z,80.69
2023-01-19T18:04:03.886Z,81.58
2023-01-19T18:06:30.741Z,82.12
2023-01-19T18:08:59.525Z,81.46
2023-01-19T18:11:26.803Z,82.46
2023-01-19T18:13:53.831Z,81.64
2023-01-19T18:16:23.162Z,81.41
2023-01-19T18:18:50.844Z,82.17
2023-01-19T18:21:18.489Z,79.57
2023-01-19T18:23:45.748Z,79.83
2023-01-19T18:26:15.142Z,79.21
2023-01-19T18:28:41.846Z,78.76
2023-01-19T18:31:10.551Z,80.10
2023-01-19T18:33:38.568Z,78.77
2023-01-19T18:36:05.940Z,78.16
2023-01-19T18:38:33.380Z,78.07
2023-01-19T18:41:12.517Z,77.99
2023-01-19T18:43:39.811Z,78.90
2023-01-19T18:46:07.670Z,79.02
2023-01-19T18:48:34.867Z,78.09
2023-01-19T18:51:05.956Z,78.14
2023-01-19T18:53:32.768Z,78.07
2023-01-19T18:56:01.857Z,77.60
2023-01-19T18:58:29.400Z,78.41
2023-01-19T19:00:56.585Z,78.44
2023-01-19T19:03:23.252Z,79.18
2023-01-19T19:05:50.011Z,79.59
2023-01-19T19:08:16.780Z,79.15
2023-01-19T19:10:43.887Z,78.69
2023-01-19T19:13:15.424Z,78.67
2023-01-19T19:15:44.236Z,78.46
2023-01-19T19:18:13.620Z,78.35
2023-01-19T19:20:41.984Z,78.26
2023-01-19T19:23:09.603Z,77.83
2023-01-19T19:25:36.380Z,77.68
2023-01-19T19:28:03.310Z,77.48
2023-01-19T19:30:30.011Z,78.04
2023-01-19T19:32:58.996Z,80.47
2023-01-19T19:35:26.191Z,79.84
2023-01-19T19:37:57.841Z,80.48
2023-01-19T19:40:26.486Z,79.58
2023-01-19T19:42:53.251Z,79.87
2023-01-19T19:45:19.936Z,80.24
2023-01-19T19:47:46.681Z,80.11
2023-01-19T19:50:14.108Z,80.01
2023-01-19T19:52:58.756Z,80.90
2023-01-19T19:55:25.411Z,80.84
2023-01-19T19:57:52.649Z,79.73
2023-01-19T20:00:19.561Z,79.25
2023-01-19T20:02:46.458Z,78.79
2023-01-19T20:05:13.113Z,79.45
2023-01-19T20:07:46.238Z,78.82
2023-01-19T20:10:13.114Z,78.81
2023-01-19T20:12:40.436Z,80.41
2023-01-19T20:15:07.460Z,79.86
2023-01-19T20:17:34.182Z,79.59
2023-01-19T20:20:03.923Z,78.76
2023-01-19T20:22:30.501Z,80.81
2023-01-19T20:24:57.082Z,80.68
2023-01-19T20:27:23.788Z,79.66
2023-01-19T20:29:51.812Z,79.10
2023-01-19T20:32:18.500Z,80.12
2023-01-19T20:34:45.493Z,81.32
2023-01-19T20:37:12.073Z,81.96
2023-01-19T20:39:38.808Z,83.11
2023-01-19T20:42:09.903Z,82.07
2023-01-19T20:44:36.553Z,81.06
2023-01-19T20:47:05.205Z,81.52
2023-01-19T20:49:33.083Z,81.34
2023-01-19T20:51:59.649Z,81.79
2023-01-19T20:54:27.875Z,82.73
2023-01-19T20:56:54.503Z,83.26
2023-01-19T20:59:21.217Z,84.47
2023-01-19T21:01:49.110Z,83.42
2023-01-19T21:04:17.088Z,82.98
2023-01-19T21:06:43.884Z,81.11
2023-01-19T21:09:10.815Z,81.58
2023-01-19T21:11:38.219Z,80.85
2023-01-19T21:14:05.513Z,81.22
2023-01-19T21:16:34.032Z,81.00
2023-01-19T21:19:00.978Z,80.57
2023-01-19T21:21:31.819Z,80.95
2023-01-19T21:24:00.931Z,81.18
2023-01-19T21:26:32.867Z,78.85
2023-01-19T21:29:03.581Z,78.70
2023-01-19T21:31:33.514Z,77.83
2023-01-19T21:34:00.265Z,78.81
2023-01-19T21:36:26.964Z,78.18
2023-01-19T21:38:55.559Z,77.63
2023-01-19T21:41:22.541Z,79.26
2023-01-19T21:43:52.117Z,79.16
2023-01-19T21:46:21.728Z,78.64
2023-01-19T21:48:48.811Z,79.80
2023-01-19T21:51:16.523Z,80.67
2023-01-19T21:53:43.118Z,80.40
2023-01-19T21:56:11.988Z,80.46
2023-01-19T21:58:38.634Z,79.16
2023-01-19T22:01:09.681Z,79.02
2023-01-19T22:03:39.461Z,79.18
2023-01-19T22:06:11.321Z,80.44
2023-01-19T22:08:41.389Z,78.88
2023-01-19T22:11:13.574Z,79.58
2023-01-19T22:13:41.894Z,78.38
2023-01-19T22:16:15.268Z,78.35
2023-01-19T22:18:44.191Z,78.71
2023-01-19T22:21:21.594Z,79.67
2023-01-19T22:23:51.160Z,80.89
2023-01-19T22:26:18.442Z,80.37
2023-01-19T22:28:45.545Z,80.22
2023-01-19T22:31:15.292Z,81.21
2023-01-19T22:33:45.447Z,81.14
2023-01-19T22:36:19.657Z,81.18
2023-01-19T22:39:03.895Z,81.51
2023-01-19T22:41:38.678Z,81.06
2023-01-19T22:44:20.956Z,80.57
2023-01-19T22:46:49.468Z,80.71
2023-01-19T22:49:19.412Z,82.41
2023-01-19T22:51:46.219Z,81.76
2023-01-19T22:54:13.557Z,80.96
2023-01-19T22:56:43.527Z,83.13
2023-01-19T22:59:13.164Z,81.75
2023-01-19T23:01:42.154Z,82.54
2023-01-19T23:04:12.976Z,80.96
2023-01-19T23:06:42.928Z,80.90
2023-01-19T23:09:15.612Z,81.46
2023-01-19T23:11:44.173Z,82.04
2023-01-19T23:14:15.784Z,81.03
2023-01-19T23:16:42.586Z,80.47
2023-01-19T23:19:10.093Z,78.94
2023-01-19T23:21:39.861Z,80.44
2023-01-19T23:24:07.328Z,80.20
2023-01-19T23:26:38.371Z,79.75
2023-01-19T23:29:07.681Z,79.15
2023-01-19T23:31:36.382Z,79.29
2023-01-19T23:34:08.099Z,78.32
2023-01-19T23:36:39.448Z,78.91
2023-01-19T23:39:13.605Z,79.56
2023-01-19T23:41:40.258Z,79.60
2023-01-19T23:44:07.007Z,79.63
2023-01-19T23:46:33.684Z,79.00
2023-01-19T23:49:00.313Z,78.58
2023-01-19T23:51:32.288Z,78.17
2023-01-19T23:54:02.225Z,78.48
2023-01-19T23:56:31.737Z,79.17
2023-01-19T23:59:03.998Z,78.66
